Time;durP1;ratioP1;P1;durP2;ratioP2;P2;SDS_P1;SDS_P2;PMS_P1;PMS_P2;Temp;Humidity;BMP_temperature;BMP_pressure;BME280_temperature;BME280_humidity;BME280_pressure;Samples;Min_cycle;Max_cycle;Signal;HPM_P1;HPM_P2
2023/02/10 00:01:13;;;;;;;64.83;29.93;;;;;;;3.32;100.00;103253.53;5004905;28;20195;-66
2023/02/10 00:03:39;;;;;;;56.27;27.30;;;;;;;3.33;100.00;103263.78;5004760;28;20207;-66
2023/02/10 00:06:05;;;;;;;52.30;27.93;;;;;;;3.33;100.00;103257.81;5000680;28;20688;-66
2023/02/10 00:08:32;;;;;;;56.20;26.30;;;;;;;3.33;100.00;103261.25;5003409;28;20300;-66
2023/02/10 00:11:02;;;;;;;63.47;28.97;;;;;;;3.31;100.00;103256.81;5001086;28;20290;-66
2023/02/10 00:13:28;;;;;;;66.20;28.63;;;;;;;3.32;100.00;103256.06;5001782;28;20214;-66
2023/02/10 00:15:56;;;;;;;60.17;29.10;;;;;;;3.30;100.00;103249.94;5001790;28;20218;-66
2023/02/10 00:18:21;;;;;;;60.80;29.30;;;;;;;3.30;100.00;103247.41;4999246;28;20227;-66
2023/02/10 00:20:47;;;;;;;60.70;29.43;;;;;;;3.30;100.00;103249.94;5003996;28;20222;-66
2023/02/10 00:23:12;;;;;;;55.30;28.47;;;;;;;3.32;100.00;103249.31;5001494;28;20230;-66
2023/02/10 00:25:38;;;;;;;56.27;28.50;;;;;;;3.35;100.00;103248.75;4996807;28;20222;-66
2023/02/10 00:28:04;;;;;;;63.87;29.77;;;;;;;3.31;100.00;103239.09;4997405;28;20212;-66
2023/02/10 00:30:30;;;;;;;61.00;29.40;;;;;;;3.31;100.00;103241.63;4999919;28;20282;-66
2023/02/10 00:32:56;;;;;;;63.10;29.83;;;;;;;3.31;100.00;103245.03;4983710;28;20188;-66
2023/02/10 00:35:22;;;;;;;60.60;29.13;;;;;;;3.33;100.00;103250.22;4983544;28;20318;-66
2023/02/10 00:37:47;;;;;;;61.97;29.67;;;;;;;3.31;100.00;103251.75;5001101;28;20206;-66
2023/02/10 00:40:13;;;;;;;56.53;28.10;;;;;;;3.33;100.00;103265.41;5002941;28;20675;-65
2023/02/10 00:42:38;;;;;;;58.57;28.60;;;;;;;3.33;100.00;103256.19;5001272;28;20274;-66
2023/02/10 00:45:04;;;;;;;64.00;28.83;;;;;;;3.35;100.00;103269.00;5003188;28;20222;-66
2023/02/10 00:47:30;;;;;;;58.17;28.80;;;;;;;3.35;100.00;103263.94;4985796;28;20187;-66
2023/02/10 00:49:55;;;;;;;70.03;28.60;;;;;;;3.38;100.00;103269.22;5000184;28;20200;-66
2023/02/10 00:52:22;;;;;;;64.73;28.83;;;;;;;3.37;100.00;103268.38;4998906;28;20550;-66
2023/02/10 00:54:48;;;;;;;60.20;29.07;;;;;;;3.38;100.00;103265.06;5000531;28;20678;-67
2023/02/10 00:57:13;;;;;;;57.93;28.03;;;;;;;3.38;100.00;103270.13;4999463;28;20211;-66
2023/02/10 00:59:39;;;;;;;53.60;26.47;;;;;;;3.39;100.00;103271.00;4983759;28;20276;-67
2023/02/10 01:02:04;;;;;;;60.33;29.30;;;;;;;3.40;100.00;103270.28;5002090;28;20191;-66
2023/02/10 01:04:30;;;;;;;58.57;30.67;;;;;;;3.38;100.00;103277.72;5002217;28;20691;-66
2023/02/10 01:06:55;;;;;;;68.90;29.83;;;;;;;3.35;100.00;103267.31;5005482;28;20222;-66
2023/02/10 01:09:21;;;;;;;61.30;29.33;;;;;;;3.36;100.00;103270.75;5004444;28;20210;-66
2023/02/10 01:11:47;;;;;;;63.50;28.43;;;;;;;3.36;100.00;103268.22;4988118;28;20330;-66
2023/02/10 01:14:13;;;;;;;64.10;29.03;;;;;;;3.37;100.00;103270.91;4972067;28;20221;-66
2023/02/10 01:16:39;;;;;;;62.20;28.87;;;;;;;3.37;100.00;103275.06;4999416;28;20294;-66
2023/02/10 01:19:08;;;;;;;59.60;28.00;;;;;;;3.39;100.00;103273.53;5000308;28;20751;-66
2023/02/10 01:21:36;;;;;;;66.43;29.97;;;;;;;3.36;100.00;103268.22;4995362;28;20230;-66
2023/02/10 01:24:02;;;;;;;59.53;28.13;;;;;;;3.37;100.00;103272.53;5000525;28;20210;-66
2023/02/10 01:26:30;;;;;;;61.60;30.17;;;;;;;3.37;100.00;103270.91;4982166;28;20243;-66
2023/02/10 01:28:57;;;;;;;57.40;28.33;;;;;;;3.40;100.00;103270.28;4984781;28;20601;-65
2023/02/10 01:31:22;;;;;;;62.73;28.30;;;;;;;3.40;100.00;103270.28;5001227;28;20206;-65
2023/02/10 01:33:52;;;;;;;66.67;28.10;;;;;;;3.39;100.00;103260.88;5002603;28;20330;-66
2023/02/10 01:36:20;;;;;;;60.37;28.73;;;;;;;3.38;100.00;103267.59;5001787;28;20215;-66
2023/02/10 01:38:46;;;;;;;59.93;28.43;;;;;;;3.37;100.00;103250.66;4986634;28;20659;-66
2023/02/10 01:41:14;;;;;;;57.20;28.30;;;;;;;3.38;100.00;103248.97;4988417;28;20483;-66
2023/02/10 01:43:59;;;;;;;59.57;28.50;;;;;;;3.38;100.00;103251.50;4981984;28;20203;-66
2023/02/10 01:46:27;;;;;;;62.53;28.73;;;;;;;3.40;100.00;103252.56;4998778;28;20577;-66
2023/02/10 01:48:55;;;;;;;56.87;26.00;;;;;;;3.42;100.00;103245.97;4970391;28;20285;-66
2023/02/10 01:51:28;;;;;;;53.60;27.13;;;;;;;3.41;100.00;103259.38;5003894;28;20261;-66
2023/02/10 01:53:54;;;;;;;57.50;27.60;;;;;;;3.42;100.00;103251.94;5004868;28;20178;-67
2023/02/10 01:56:19;;;;;;;59.03;27.40;;;;;;;3.44;100.00;103252.94;4988941;28;20446;-67
2023/02/10 01:58:45;;;;;;;56.23;28.07;;;;;;;3.46;100.00;103258.13;4990365;28;20249;-66
2023/02/10 02:01:11;;;;;;;59.83;26.43;;;;;;;3.44;100.00;103257.09;4992090;28;20201;-67
2023/02/10 02:03:40;;;;;;;50.73;26.07;;;;;;;3.46;100.00;103255.59;5008245;28;20212;-67
2023/02/10 02:06:07;;;;;;;47.63;25.03;;;;;;;3.50;100.00;103252.59;4989351;28;20238;-67
2023/02/10 02:08:33;;;;;;;56.03;25.50;;;;;;;3.50;100.00;103255.97;5001199;28;20206;-66
2023/02/10 02:11:15;;;;;;;52.57;23.70;;;;;;;3.50;100.00;103250.91;4983398;28;20222;-66
2023/02/10 02:13:59;;;;;;;50.50;24.40;;;;;;;3.53;100.00;103247.75;4984184;28;20234;-66
2023/02/10 02:16:36;;;;;;;46.30;23.37;;;;;;;3.52;100.00;103240.94;5002068;28;20306;-65
2023/02/10 02:19:30;;;;;;;49.33;22.27;;;;;;;3.55;100.00;103248.78;5004331;28;20191;-65
2023/02/10 02:22:14;;;;;;;46.47;22.70;;;;;;;3.60;100.00;103256.03;4973090;28;20196;-65
2023/02/10 02:25:17;;;;;;;57.27;23.87;;;;;;;3.61;100.00;103260.34;5003870;28;20576;-66
2023/02/10 02:28:05;;;;;;;51.77;22.97;;;;;;;3.64;100.00;103262.25;5004506;28;20191;-67
2023/02/10 02:30:52;;;;;;;45.10;21.63;;;;;;;3.65;100.00;103253.88;4986719;28;20191;-66
2023/02/10 02:33:46;;;;;;;52.00;23.37;;;;;;;3.64;100.00;103254.66;4986916;28;20188;-66
2023/02/10 02:36:27;;;;;;;46.83;23.13;;;;;;;3.63;100.00;103253.75;4985113;28;20231;-67
2023/02/10 02:38:59;;;;;;;47.73;23.43;;;;;;;3.63;100.00;103253.75;4984883;28;20576;-67
2023/02/10 02:41:25;;;;;;;49.00;23.00;;;;;;;3.63;100.00;103263.00;4986054;28;20581;-67
2023/02/10 02:43:52;;;;;;;50.17;25.03;;;;;;;3.61;100.00;103255.28;4986461;28;20206;-67
2023/02/10 02:46:38;;;;;;;48.60;22.93;;;;;;;3.59;100.00;103251.72;5006864;28;20245;-67
2023/02/10 02:49:16;;;;;;;49.00;22.77;;;;;;;3.57;100.00;103244.75;5005492;28;20245;-67
2023/02/10 02:51:57;;;;;;;43.90;22.30;;;;;;;3.55;100.00;103256.41;5004356;28;20199;-67
2023/02/10 02:54:46;;;;;;;43.13;22.23;;;;;;;3.51;100.00;103247.66;4987616;28;20191;-67
2023/02/10 02:57:41;;;;;;;52.37;23.13;;;;;;;3.50;100.00;103250.91;5008946;28;20264;-66
2023/02/10 03:00:12;;;;;;;51.80;22.17;;;;;;;3.51;100.00;103262.84;4981403;28;20195;-66
2023/02/10 03:02:41;;;;;;;49.00;22.47;;;;;;;3.50;100.00;103260.19;4966508;28;20214;-66
2023/02/10 03:05:08;;;;;;;46.27;21.70;;;;;;;3.45;100.00;103261.44;5001115;28;20195;-66
2023/02/10 03:07:34;;;;;;;48.20;22.20;;;;;;;3.44;100.00;103257.09;5001041;28;20196;-66
2023/02/10 03:09:59;;;;;;;49.30;23.80;;;;;;;3.46;100.00;103259.03;5002666;28;20738;-66
2023/02/10 03:12:25;;;;;;;56.23;24.80;;;;;;;3.49;100.00;103255.88;5007325;28;20242;-66
2023/02/10 03:14:50;;;;;;;59.97;24.10;;;;;;;3.41;100.00;103252.66;5007900;28;20195;-66
2023/02/10 03:17:16;;;;;;;53.10;25.27;;;;;;;3.36;100.00;103248.84;5005109;28;20222;-66
2023/02/10 03:19:41;;;;;;;56.70;26.27;;;;;;;3.38;100.00;103246.44;5008639;28;20241;-65
2023/02/10 03:22:07;;;;;;;55.93;26.17;;;;;;;3.36;100.00;103240.38;5008237;28;20719;-65
2023/02/10 03:24:32;;;;;;;47.50;25.67;;;;;;;3.32;100.00;103239.19;5002547;28;20215;-65
2023/02/10 03:26:58;;;;;;;56.97;26.90;;;;;;;3.29;100.00;103238.97;5005805;28;20647;-65
2023/02/10 03:29:24;;;;;;;57.93;29.00;;;;;;;3.30;100.00;103242.34;5006904;28;20773;-65
2023/02/10 03:31:49;;;;;;;54.37;28.03;;;;;;;3.30;100.00;103242.34;5005466;28;20214;-65
2023/02/10 03:34:15;;;;;;;61.40;27.60;;;;;;;3.28;100.00;103239.72;5005370;28;20191;-65
2023/02/10 03:36:41;;;;;;;54.63;28.27;;;;;;;3.27;100.00;103247.19;5007899;28;20214;-65
2023/02/10 03:39:06;;;;;;;58.10;28.07;;;;;;;3.26;100.00;103246.28;5009510;28;20215;-65
2023/02/10 03:41:31;;;;;;;60.33;27.83;;;;;;;3.28;100.00;103252.38;5008169;28;20199;-65
2023/02/10 03:43:57;;;;;;;60.33;28.30;;;;;;;3.27;100.00;103253.09;5006561;28;20290;-65
2023/02/10 03:46:22;;;;;;;53.67;28.07;;;;;;;3.27;100.00;103255.63;5002851;28;20207;-65
2023/02/10 03:48:48;;;;;;;65.83;28.10;;;;;;;3.29;100.00;103249.09;5005012;28;20715;-67
2023/02/10 03:51:14;;;;;;;65.37;30.03;;;;;;;3.29;100.00;103256.69;4985013;28;20249;-67
2023/02/10 03:53:39;;;;;;;58.87;28.97;;;;;;;3.28;100.00;103251.47;5004345;28;20241;-67
2023/02/10 03:56:05;;;;;;;55.20;30.17;;;;;;;3.29;100.00;103263.38;5004757;28;20957;-67
2023/02/10 03:58:31;;;;;;;63.70;29.83;;;;;;;3.28;100.00;103272.63;5003864;28;20195;-66
2023/02/10 04:00:56;;;;;;;58.10;29.10;;;;;;;3.27;100.00;103263.22;5008973;28;20206;-66
2023/02/10 04:03:22;;;;;;;63.80;30.23;;;;;;;3.27;100.00;103260.69;5008002;28;20210;-66
2023/02/10 04:05:47;;;;;;;60.03;29.93;;;;;;;3.24;100.00;103259.56;4985636;28;20211;-66
2023/02/10 04:08:13;;;;;;;68.17;30.77;;;;;;;3.21;100.00;103252.59;5008435;28;20609;-66
2023/02/10 04:10:38;;;;;;;67.90;33.00;;;;;;;3.22;100.00;103256.00;5004099;28;20195;-66
2023/02/10 04:13:04;;;;;;;70.53;31.97;;;;;;;3.20;100.00;103250.81;5006038;28;20191;-66
2023/02/10 04:15:29;;;;;;;61.80;32.60;;;;;;;3.17;100.00;103254.72;5006142;28;20718;-66
2023/02/10 04:17:56;;;;;;;66.23;31.13;;;;;;;3.14;100.00;103257.88;4988375;28;20195;-67
2023/02/10 04:20:22;;;;;;;63.97;32.00;;;;;;;3.14;100.00;103256.97;5006634;28;20261;-67
2023/02/10 04:22:48;;;;;;;64.10;31.03;;;;;;;3.09;100.00;103266.69;4987817;28;20194;-67
2023/02/10 04:25:13;;;;;;;71.80;32.60;;;;;;;3.07;100.00;103278.31;5008206;28;20309;-67
2023/02/10 04:27:39;;;;;;;58.30;31.77;;;;;;;3.06;100.00;103284.16;5007402;28;20562;-67
2023/02/10 04:30:05;;;;;;;59.90;32.83;;;;;;;3.05;100.00;103279.84;5004396;28;20355;-66
2023/02/10 04:32:30;;;;;;;66.23;33.60;;;;;;;3.02;100.00;103279.56;5006253;28;20195;-67
2023/02/10 04:34:56;;;;;;;57.50;31.80;;;;;;;3.06;100.00;103284.16;5008673;28;20187;-67
2023/02/10 04:37:21;;;;;;;72.37;34.17;;;;;;;3.03;100.00;103278.81;5008239;28;20222;-66
2023/02/10 04:39:47;;;;;;;63.80;35.50;;;;;;;3.03;100.00;103283.00;5004230;28;20222;-66
2023/02/10 04:42:12;;;;;;;72.33;34.73;;;;;;;3.04;100.00;103284.78;5003131;28;20337;-66
2023/02/10 04:44:37;;;;;;;64.50;34.40;;;;;;;3.05;100.00;103291.59;5000490;28;20361;-66
2023/02/10 04:47:03;;;;;;;62.40;32.80;;;;;;;3.08;100.00;103299.47;5007712;28;20274;-66
2023/02/10 04:49:28;;;;;;;72.77;33.13;;;;;;;3.05;100.00;103295.03;5003609;28;20195;-66
2023/02/10 04:51:54;;;;;;;75.23;33.83;;;;;;;3.07;100.00;103300.19;5003203;28;20210;-66
2023/02/10 04:54:20;;;;;;;69.77;34.53;;;;;;;3.04;100.00;103298.28;5003951;28;20187;-66
2023/02/10 04:56:45;;;;;;;72.30;34.73;;;;;;;3.03;100.00;103291.47;4988334;28;20304;-67
2023/02/10 04:59:12;;;;;;;70.90;33.70;;;;;;;3.04;100.00;103305.00;5004040;28;20191;-67
2023/02/10 05:01:37;;;;;;;72.93;33.97;;;;;;;3.09;100.00;103307.16;5006795;28;20291;-67
2023/02/10 05:04:03;;;;;;;71.20;35.50;;;;;;;3.11;100.00;103305.69;4990368;28;20333;-66
2023/02/10 05:06:28;;;;;;;68.97;34.07;;;;;;;3.12;100.00;103307.44;5005510;28;20222;-66
2023/02/10 05:08:54;;;;;;;76.43;35.07;;;;;;;3.15;100.00;103311.91;5006327;28;20203;-66
2023/02/10 05:11:19;;;;;;;66.43;34.50;;;;;;;3.15;100.00;103305.22;5002870;28;20209;-66
2023/02/10 05:13:45;;;;;;;67.87;34.37;;;;;;;3.15;100.00;103312.81;5002725;28;20200;-66
2023/02/10 05:16:12;;;;;;;69.47;34.07;;;;;;;3.13;100.00;103311.75;5005580;28;20396;-66
2023/02/10 05:18:39;;;;;;;68.50;35.57;;;;;;;3.16;100.00;103312.03;5007404;28;20296;-66
2023/02/10 05:21:05;;;;;;;83.20;35.87;;;;;;;3.19;100.00;103312.31;5008156;28;20703;-66
2023/02/10 05:23:30;;;;;;;75.00;35.47;;;;;;;3.23;100.00;103313.47;5006172;28;20297;-67
2023/02/10 05:25:55;;;;;;;77.13;33.40;;;;;;;3.23;100.00;103319.44;5003937;28;20206;-67
2023/02/10 05:28:21;;;;;;;74.93;35.37;;;;;;;3.26;100.00;103316.28;4998958;28;20668;-66
2023/02/10 05:30:47;;;;;;;74.47;34.77;;;;;;;3.28;100.00;103320.72;4988445;28;20188;-66
2023/02/10 05:33:13;;;;;;;73.83;33.90;;;;;;;3.29;100.00;103314.91;5005042;28;20191;-66
2023/02/10 05:35:38;;;;;;;77.43;33.17;;;;;;;3.29;100.00;103326.66;5005716;28;20211;-66
2023/02/10 05:38:04;;;;;;;65.70;33.13;;;;;;;3.33;100.00;103328.72;5002094;28;20673;-66
2023/02/10 05:40:30;;;;;;;72.93;33.87;;;;;;;3.32;100.00;103326.94;5003123;28;20203;-65
2023/02/10 05:42:55;;;;;;;63.93;30.73;;;;;;;3.32;100.00;103327.81;5004859;28;20265;-65
2023/02/10 05:45:22;;;;;;;66.57;31.97;;;;;;;3.31;100.00;103323.50;5004710;28;20195;-65
2023/02/10 05:47:47;;;;;;;70.73;33.63;;;;;;;3.33;100.00;103331.25;5006129;28;20665;-65
2023/02/10 05:50:13;;;;;;;66.47;31.80;;;;;;;3.35;100.00;103334.81;5008255;28;20221;-65
2023/02/10 05:52:39;;;;;;;61.63;31.73;;;;;;;3.37;100.00;103344.31;5001261;28;20239;-66
2023/02/10 05:55:05;;;;;;;67.53;31.60;;;;;;;3.38;100.00;103332.53;5001722;28;20187;-65
2023/02/10 05:57:30;;;;;;;65.50;32.43;;;;;;;3.39;100.00;103327.59;5002102;28;20210;-65
2023/02/10 05:59:56;;;;;;;70.70;32.10;;;;;;;3.43;100.00;103336.34;5005019;28;20648;-66
2023/02/10 06:02:21;;;;;;;70.50;34.07;;;;;;;3.46;100.00;103339.16;4986845;28;20195;-66
2023/02/10 06:04:47;;;;;;;64.20;32.40;;;;;;;3.45;100.00;103338.25;5006653;28;20211;-66
2023/02/10 06:07:12;;;;;;;74.13;32.93;;;;;;;3.48;100.00;103333.47;5003299;28;20227;-66
2023/02/10 06:09:39;;;;;;;68.03;33.03;;;;;;;3.48;100.00;103330.94;5003585;28;20202;-66
2023/02/10 06:12:05;;;;;;;69.80;33.73;;;;;;;3.48;100.00;103330.94;4987429;28;20198;-66
2023/02/10 06:14:31;;;;;;;59.70;32.17;;;;;;;3.49;100.00;103331.84;5007060;28;20199;-66
2023/02/10 06:16:56;;;;;;;67.90;34.63;;;;;;;3.51;100.00;103332.84;5007050;28;20222;-66
2023/02/10 06:19:22;;;;;;;73.07;33.80;;;;;;;3.51;100.00;103332.84;5005798;28;20325;-66
2023/02/10 06:21:48;;;;;;;67.63;32.00;;;;;;;3.52;100.00;103338.06;5003377;28;20191;-66
2023/02/10 06:24:13;;;;;;;67.40;33.57;;;;;;;3.54;100.00;103343.25;5007389;28;20745;-66
2023/02/10 06:26:39;;;;;;;68.73;32.17;;;;;;;3.55;100.00;103348.44;5006159;28;20230;-66
2023/02/10 06:29:04;;;;;;;66.47;34.77;;;;;;;3.56;100.00;103359.47;5007745;28;20210;-66
2023/02/10 06:31:30;;;;;;;69.50;32.87;;;;;;;3.56;100.00;103359.47;5006144;28;20717;-66
2023/02/10 06:33:55;;;;;;;75.10;32.90;;;;;;;3.57;100.00;103362.13;5009430;28;20187;-66
2023/02/10 06:36:21;;;;;;;71.13;34.63;;;;;;;3.59;100.00;103362.28;5006573;28;20591;-66
2023/02/10 06:38:47;;;;;;;76.07;32.53;;;;;;;3.61;100.00;103363.28;5010056;28;20214;-66
2023/02/10 06:41:13;;;;;;;69.97;32.60;;;;;;;3.61;100.00;103366.72;5005514;28;20191;-66
2023/02/10 06:43:39;;;;;;;64.63;31.90;;;;;;;3.64;100.00;103374.56;5008342;28;20706;-66
2023/02/10 06:46:04;;;;;;;60.13;31.03;;;;;;;3.64;100.00;103361.03;5007433;28;20229;-66
2023/02/10 06:48:30;;;;;;;64.87;31.90;;;;;;;3.64;100.00;103366.97;5008035;28;20198;-66
2023/02/10 06:50:55;;;;;;;69.93;31.57;;;;;;;3.64;100.00;103361.91;5004930;28;20202;-66
2023/02/10 06:53:21;;;;;;;70.20;31.23;;;;;;;3.66;100.00;103369.63;5006313;28;20222;-66
2023/02/10 06:55:47;;;;;;;56.37;30.90;;;;;;;3.66;100.00;103375.59;5007427;28;20576;-66
2023/02/10 06:58:12;;;;;;;58.07;30.47;;;;;;;3.68;100.00;103378.28;4990615;28;20287;-66
2023/02/10 07:00:38;;;;;;;74.47;31.07;;;;;;;3.71;100.00;103392.09;5008473;28;20636;-66
2023/02/10 07:03:03;;;;;;;66.83;31.60;;;;;;;3.71;100.00;103389.56;5005132;28;20642;-66
2023/02/10 07:05:29;;;;;;;72.53;32.07;;;;;;;3.70;100.00;103389.41;5005497;28;20219;-66
2023/02/10 07:07:55;;;;;;;62.17;31.17;;;;;;;3.74;100.00;103401.59;5006872;28;20195;-66
2023/02/10 07:10:21;;;;;;;65.93;31.73;;;;;;;3.71;100.00;103394.63;4990158;28;20217;-66
2023/02/10 07:12:51;;;;;;;75.53;32.57;;;;;;;3.71;100.00;103401.31;5006458;28;20187;-66
2023/02/10 07:15:18;;;;;;;67.37;32.13;;;;;;;3.72;100.00;103398.06;5005081;28;20672;-66
2023/02/10 07:17:45;;;;;;;66.10;31.07;;;;;;;3.73;100.00;103400.69;5000266;28;20290;-66
2023/02/10 07:20:11;;;;;;;71.23;32.23;;;;;;;3.72;100.00;103396.41;5010286;28;20199;-67
2023/02/10 07:22:36;;;;;;;72.73;32.07;;;;;;;3.73;100.00;103402.38;5007970;28;20250;-66
2023/02/10 07:25:02;;;;;;;78.27;32.63;;;;;;;3.71;100.00;103402.22;5003559;28;20627;-66
2023/02/10 07:27:28;;;;;;;70.43;31.63;;;;;;;3.71;100.00;103404.75;5008951;28;20551;-66
2023/02/10 07:29:53;;;;;;;64.70;32.00;;;;;;;3.70;100.00;103404.63;5004841;28;20240;-66
2023/02/10 07:32:19;;;;;;;70.60;31.93;;;;;;;3.67;100.00;103411.94;5003499;28;20199;-66
2023/02/10 07:34:46;;;;;;;70.60;33.77;;;;;;;3.63;100.00;103405.72;5008867;28;20202;-66
2023/02/10 07:37:11;;;;;;;71.27;32.10;;;;;;;3.67;100.00;103406.88;5007923;28;20219;-66
2023/02/10 07:39:37;;;;;;;73.67;32.53;;;;;;;3.67;100.00;103412.84;5002393;28;20199;-66
2023/02/10 07:42:02;;;;;;;72.80;33.83;;;;;;;3.71;100.00;103414.88;5005632;28;20194;-66
2023/02/10 07:44:39;;;;;;;74.30;33.90;;;;;;;3.72;100.00;103416.66;4986713;28;20317;-67
2023/02/10 07:47:05;;;;;;;76.37;32.33;;;;;;;3.73;100.00;103422.63;5006672;28;20242;-66
2023/02/10 07:49:30;;;;;;;66.13;34.53;;;;;;;3.71;100.00;103413.97;5003720;28;20840;-66
2023/02/10 07:51:56;;;;;;;69.70;33.67;;;;;;;3.74;100.00;103420.25;5005691;28;20199;-66
2023/02/10 07:54:21;;;;;;;70.93;34.90;;;;;;;3.74;100.00;103422.78;5000334;28;20568;-66
2023/02/10 07:56:47;;;;;;;70.00;34.43;;;;;;;3.76;100.00;103425.41;5004114;28;20301;-66
2023/02/10 07:59:13;;;;;;;76.73;34.50;;;;;;;3.77;100.00;103420.47;5003024;28;20199;-66
2023/02/10 08:01:42;;;;;;;86.13;34.83;;;;;;;3.77;100.00;103419.63;5001816;28;20197;-67
2023/02/10 08:04:09;;;;;;;78.33;36.63;;;;;;;3.77;100.00;103422.16;5006717;28;20215;-67
2023/02/10 08:06:34;;;;;;;77.77;36.53;;;;;;;3.80;100.00;103419.84;5008694;28;20215;-67
2023/02/10 08:09:00;;;;;;;79.73;34.70;;;;;;;3.82;100.00;103421.78;5006679;28;20202;-67
2023/02/10 08:11:25;;;;;;;81.70;35.87;;;;;;;3.82;100.00;103428.50;5009639;28;20291;-67
2023/02/10 08:13:51;;;;;;;74.43;36.37;;;;;;;3.86;100.00;103428.03;5003033;28;20192;-67
2023/02/10 08:16:16;;;;;;;77.57;34.87;;;;;;;3.88;100.00;103435.00;5005246;28;20319;-66
2023/02/10 08:18:41;;;;;;;75.73;35.47;;;;;;;3.88;100.00;103436.63;5006061;28;20568;-66
2023/02/10 08:21:07;;;;;;;80.87;35.23;;;;;;;3.92;100.00;103433.63;4992444;28;20832;-66
2023/02/10 08:23:34;;;;;;;73.20;34.03;;;;;;;3.99;100.00;103431.75;5002670;28;20634;-66
2023/02/10 08:26:06;;;;;;;77.60;34.87;;;;;;;4.02;100.00;103434.56;5005939;28;20277;-66
2023/02/10 08:28:31;;;;;;;74.13;35.47;;;;;;;4.05;100.00;103428.88;5004029;28;20661;-66
2023/02/10 08:31:01;;;;;;;70.57;35.03;;;;;;;4.15;100.00;103423.81;5006176;28;20194;-66
2023/02/10 08:33:26;;;;;;;68.70;33.43;;;;;;;4.14;100.00;103419.50;5002563;28;20204;-67
2023/02/10 08:35:53;;;;;;;75.90;34.20;;;;;;;4.21;100.00;103424.34;5004059;28;20866;-67
2023/02/10 08:38:18;;;;;;;74.97;35.00;;;;;;;4.27;100.00;103422.31;5000350;28;20206;-67
2023/02/10 08:40:44;;;;;;;68.43;34.40;;;;;;;4.35;100.00;103429.84;4999627;28;20182;-67
2023/02/10 08:43:09;;;;;;;72.07;33.70;;;;;;;4.24;100.00;103434.75;5002324;28;20284;-67
2023/02/10 08:45:37;;;;;;;75.20;34.90;;;;;;;4.25;100.00;103441.59;5002277;28;20224;-67
2023/02/10 08:48:03;;;;;;;77.00;35.40;;;;;;;4.24;100.00;103439.81;5002924;28;20239;-67
2023/02/10 08:50:28;;;;;;;72.43;34.90;;;;;;;4.33;100.00;103433.00;4997129;28;20227;-67
2023/02/10 08:52:54;;;;;;;71.60;35.33;;;;;;;4.29;100.00;103436.03;5001100;28;20279;-66
2023/02/10 08:55:19;;;;;;;67.73;34.77;;;;;;;4.28;100.00;103434.28;5000746;28;20206;-66
2023/02/10 08:57:45;;;;;;;65.07;33.77;;;;;;;4.27;100.00;103430.81;5003214;28;20199;-66
2023/02/10 09:00:11;;;;;;;68.73;33.87;;;;;;;4.32;100.00;103419.44;5005337;28;20270;-67
2023/02/10 09:02:36;;;;;;;74.23;33.57;;;;;;;4.36;100.00;103429.09;5008046;28;20533;-67
2023/02/10 09:05:02;;;;;;;63.40;32.77;;;;;;;4.36;100.00;103429.09;5003513;28;20254;-67
2023/02/10 09:07:27;;;;;;;76.00;32.70;;;;;;;4.43;100.00;103433.94;5003608;28;20245;-67
2023/02/10 09:09:53;;;;;;;65.07;32.53;;;;;;;4.46;100.00;103435.84;5002783;28;20290;-67
2023/02/10 09:12:18;;;;;;;62.07;31.73;;;;;;;4.49;100.00;103431.00;5002165;28;20206;-67
2023/02/10 09:14:44;;;;;;;69.97;31.83;;;;;;;4.50;100.00;103436.22;5003150;28;20184;-67
2023/02/10 09:17:10;;;;;;;64.93;31.87;;;;;;;4.53;100.00;103427.97;5004108;28;20802;-67
2023/02/10 09:19:36;;;;;;;60.07;30.00;;;;;;;4.47;100.00;103446.09;5000799;28;20745;-67
2023/02/10 09:22:03;;;;;;;61.27;30.67;;;;;;;4.53;100.00;103444.09;5005943;28;20203;-66
2023/02/10 09:24:28;;;;;;;64.23;30.70;;;;;;;4.61;100.00;103443.06;5001940;28;20643;-67
2023/02/10 09:26:54;;;;;;;56.63;29.73;;;;;;;4.53;100.00;103439.03;5003324;28;20237;-67
2023/02/10 09:29:19;;;;;;;58.87;30.57;;;;;;;4.59;100.00;103439.53;5001939;28;20225;-67
2023/02/10 09:31:45;;;;;;;63.87;31.13;;;;;;;4.50;100.00;103445.47;5000621;28;20230;-67
2023/02/10 09:34:10;;;;;;;67.30;31.10;;;;;;;4.58;100.00;103436.88;5001317;28;20668;-67
2023/02/10 09:36:36;;;;;;;69.63;32.83;;;;;;;4.56;100.00;103441.81;5002551;28;20219;-67
2023/02/10 09:39:01;;;;;;;60.57;31.30;;;;;;;4.68;100.00;103447.03;5002920;28;20222;-67
2023/02/10 09:41:36;;;;;;;83.37;35.20;;;;;;;4.63;100.00;103439.03;4999692;28;20275;-67
2023/02/10 09:44:10;;;;;;;75.73;33.00;;;;;;;4.67;100.00;103448.69;5006252;28;20261;-67
2023/02/10 09:46:58;;;;;;;69.93;33.07;;;;;;;4.61;100.00;103452.34;5008455;28;20693;-68
2023/02/10 09:49:26;;;;;;;72.53;33.87;;;;;;;4.60;100.00;103442.97;5006381;28;20213;-67
2023/02/10 09:52:07;;;;;;;72.90;34.13;;;;;;;4.73;100.00;103445.75;4980428;28;20650;-67
2023/02/10 09:54:33;;;;;;;65.63;31.83;;;;;;;4.66;100.00;103443.47;5003120;28;20688;-67
2023/02/10 09:57:10;;;;;;;72.63;33.17;;;;;;;4.65;100.00;103450.19;5005914;28;20221;-66
2023/02/10 09:59:38;;;;;;;69.37;31.73;;;;;;;4.67;100.00;103452.88;5003597;28;20380;-66
2023/02/10 10:02:15;;;;;;;65.27;30.87;;;;;;;4.65;100.00;103455.25;5004654;28;20198;-66
2023/02/10 10:04:43;;;;;;;60.97;31.07;;;;;;;4.74;100.00;103463.66;5003698;28;20215;-66
2023/02/10 10:07:22;;;;;;;67.93;30.30;;;;;;;4.75;100.00;103459.47;5004068;28;20249;-66
2023/02/10 10:10:20;;;;;;;53.33;29.40;;;;;;;4.76;100.00;103454.53;5004948;28;20203;-67
2023/02/10 10:12:45;;;;;;;61.47;30.10;;;;;;;4.77;100.00;103461.38;4951437;28;20298;-66
2023/02/10 10:15:18;;;;;;;57.73;29.60;;;;;;;4.83;100.00;103461.91;5007554;28;20195;-66
2023/02/10 10:17:57;;;;;;;59.03;29.13;;;;;;;4.87;100.00;103461.41;5004239;28;20735;-67
2023/02/10 10:20:45;;;;;;;58.87;30.43;;;;;;;4.83;100.00;103469.50;5008066;28;20293;-67
2023/02/10 10:23:39;;;;;;;64.30;30.77;;;;;;;4.85;100.00;103469.66;5005278;28;20242;-66
2023/02/10 10:26:27;;;;;;;62.67;29.80;;;;;;;4.82;100.00;103467.75;5005660;28;20315;-66
2023/02/10 10:29:12;;;;;;;59.23;29.90;;;;;;;4.82;100.00;103466.84;5005918;28;20194;-65
2023/02/10 10:31:41;;;;;;;62.80;29.93;;;;;;;4.93;100.00;103459.38;5003505;28;20274;-66
2023/02/10 10:34:07;;;;;;;52.87;29.17;;;;;;;4.95;100.00;103462.94;5003499;28;20548;-66
2023/02/10 10:36:47;;;;;;;63.87;29.47;;;;;;;4.98;100.00;103468.25;5006713;28;20215;-66
2023/02/10 10:39:37;;;;;;;60.87;28.97;;;;;;;5.06;100.00;103462.16;5004773;28;20199;-66
2023/02/10 10:42:18;;;;;;;57.27;28.00;;;;;;;5.07;100.00;103455.47;5003869;28;20239;-67
2023/02/10 10:44:47;;;;;;;59.17;31.33;;;;;;;5.09;100.00;103459.91;5010582;28;20222;-67
2023/02/10 10:47:20;;;;;;;62.73;31.23;;;;;;;5.18;100.00;103455.59;5006220;28;20226;-66
2023/02/10 10:49:45;;;;;;;70.87;31.57;;;;;;;5.15;100.00;103464.59;5007123;28;20191;-66
2023/02/10 10:52:28;;;;;;;73.20;32.43;;;;;;;5.22;100.00;103451.63;4994622;28;20714;-66
2023/02/10 10:54:54;;;;;;;64.93;30.70;;;;;;;5.13;100.00;103449.25;4999742;28;20241;-66
2023/02/10 10:57:20;;;;;;;61.27;30.60;;;;;;;5.14;100.00;103445.94;5005715;28;20227;-66
2023/02/10 10:59:54;;;;;;;54.60;29.93;;;;;;;5.21;100.00;103453.28;5005499;28;20202;-66
2023/02/10 11:02:22;;;;;;;56.80;31.33;;;;;;;5.24;100.00;103447.56;5004115;28;20190;-66
2023/02/10 11:05:16;;;;;;;58.00;29.93;;;;;;;5.24;100.00;103448.47;5007893;28;20231;-67
2023/02/10 11:07:42;;;;;;;61.67;30.33;;;;;;;5.39;100.00;103451.38;4995015;28;20199;-66
2023/02/10 11:10:21;;;;;;;57.63;29.70;;;;;;;5.47;100.00;103445.25;5008125;28;20206;-66
2023/02/10 11:12:48;;;;;;;64.03;31.20;;;;;;;5.64;100.00;103437.34;5005731;28;20661;-66
2023/02/10 11:15:36;;;;;;;61.23;28.20;;;;;;;5.68;100.00;103442.81;5005028;28;20214;-66